Time;durP1;ratioP1;P1;durP2;ratioP2;P2;SDS_P1;SDS_P2;PMS_P1;PMS_P2;Temp;Humidity;BMP_temperature;BMP_pressure;BME280_temperature;BME280_humidity;BME280_pressure;Samples;Min_cycle;Max_cycle;Signal;HPM_P1;HPM_P2
2023/09/07 00:00:31;;;;;;;;;;;21.60;99.90;;;;;;8372446;28;19978;-71
2023/09/07 00:04:32;;;;;;;;;;;21.40;99.90;;;;;;8368485;28;20410;-71
2023/09/07 00:08:34;;;;;;;;;;;21.40;99.90;;;;;;8378111;28;19929;-71
2023/09/07 00:12:39;;;;;;;;;;;21.30;99.90;;;;;;8359290;28;19929;-71
2023/09/07 00:16:40;;;;;;;;;;;21.30;99.90;;;;;;8369914;28;19930;-71
2023/09/07 00:20:42;;;;;;;;;;;21.20;99.90;;;;;;8374730;28;20011;-71
2023/09/07 00:24:44;;;;;;;;;;;21.20;99.90;;;;;;8371347;28;19936;-71
2023/09/07 00:28:46;;;;;;;;;;;21.20;99.90;;;;;;8373114;28;19928;-71
2023/09/07 00:32:48;;;;;;;;;;;21.10;99.90;;;;;;8375056;28;19925;-71
2023/09/07 00:36:49;;;;;;;;;;;21.10;99.90;;;;;;8351412;28;19931;-71
2023/09/07 00:40:51;;;;;;;;;;;21.00;99.90;;;;;;8371357;28;20272;-70
2023/09/07 00:44:53;;;;;;;;;;;21.00;99.90;;;;;;8372730;28;20334;-71
2023/09/07 00:48:56;;;;;;;;;;;20.90;99.90;;;;;;8371411;28;19960;-71
2023/09/07 00:52:59;;;;;;;;;;;20.90;99.90;;;;;;8377054;28;20398;-71
2023/09/07 00:57:02;;;;;;;;;;;20.90;99.90;;;;;;8352916;28;19924;-71
2023/09/07 01:01:03;;;;;;;;;;;20.90;99.90;;;;;;8373435;28;19924;-71
2023/09/07 01:05:06;;;;;;;;;;;20.80;99.90;;;;;;8371021;28;19924;-71
2023/09/07 01:09:14;;;;;;;;;;;20.70;99.90;;;;;;8371983;28;19967;-71
2023/09/07 01:13:16;;;;;;;;;;;20.60;99.90;;;;;;8372066;28;19931;-71
2023/09/07 01:17:17;;;;;;;;;;;20.60;99.90;;;;;;8377773;28;19924;-71
2023/09/07 01:21:19;;;;;;;;;;;20.60;99.90;;;;;;8375470;28;19924;-71
2023/09/07 01:25:21;;;;;;;;;;;20.50;99.90;;;;;;8376395;28;19978;-71
2023/09/07 01:29:23;;;;;;;;;;;20.50;99.90;;;;;;8368275;28;19924;-71
2023/09/07 01:33:25;;;;;;;;;;;20.50;99.90;;;;;;8378797;28;19924;-71
2023/09/07 01:37:26;;;;;;;;;;;20.50;99.90;;;;;;8373115;28;19928;-71
2023/09/07 01:41:29;;;;;;;;;;;20.40;99.90;;;;;;8377306;28;19925;-71
2023/09/07 01:45:30;;;;;;;;;;;20.40;99.90;;;;;;8376028;28;20490;-70
2023/09/07 01:49:32;;;;;;;;;;;20.40;99.90;;;;;;8377297;28;19933;-71
2023/09/07 01:53:34;;;;;;;;;;;20.30;99.90;;;;;;8378690;28;19925;-71
2023/09/07 01:57:35;;;;;;;;;;;20.30;99.90;;;;;;8367768;28;19924;-71
2023/09/07 02:01:38;;;;;;;;;;;20.30;99.90;;;;;;8377304;28;19925;-71
2023/09/07 02:05:40;;;;;;;;;;;20.20;99.90;;;;;;8372349;28;19936;-71
2023/09/07 02:09:42;;;;;;;;;;;20.20;99.90;;;;;;8380355;28;19929;-71
2023/09/07 02:13:45;;;;;;;;;;;20.10;99.90;;;;;;8374142;28;19929;-71
2023/09/07 02:17:47;;;;;;;;;;;20.10;99.90;;;;;;8375121;28;19972;-71
2023/09/07 02:31:57;;;;;;;;;;;20.00;99.90;;;;;;8369873;28;20425;-70
2023/09/07 02:35:59;;;;;;;;;;;19.90;99.90;;;;;;8374557;28;20372;-70
2023/09/07 02:40:01;;;;;;;;;;;19.90;99.90;;;;;;8371985;28;19978;-71
2023/09/07 02:44:02;;;;;;;;;;;19.80;99.90;;;;;;8374799;28;19928;-71
2023/09/07 02:48:05;;;;;;;;;;;19.80;99.90;;;;;;8375984;28;19928;-70
2023/09/07 02:52:07;;;;;;;;;;;19.80;99.90;;;;;;8375812;28;19928;-71
2023/09/07 02:56:10;;;;;;;;;;;19.70;99.90;;;;;;8358859;28;19928;-71
2023/09/07 03:00:12;;;;;;;;;;;19.70;99.90;;;;;;8375457;28;20334;-71
2023/09/07 03:04:14;;;;;;;;;;;19.70;99.90;;;;;;8372765;28;19979;-70
2023/09/07 03:08:15;;;;;;;;;;;19.70;99.90;;;;;;8373547;28;19928;-71
2023/09/07 03:12:17;;;;;;;;;;;19.60;99.90;;;;;;8350429;28;19932;-71
2023/09/07 03:16:19;;;;;;;;;;;19.50;99.90;;;;;;8373255;28;20368;-71
2023/09/07 03:20:20;;;;;;;;;;;19.50;99.90;;;;;;8378789;28;19924;-71
2023/09/07 03:24:22;;;;;;;;;;;19.40;99.90;;;;;;8376945;28;19925;-71
2023/09/07 03:28:25;;;;;;;;;;;19.30;99.90;;;;;;8371872;28;19947;-70
2023/09/07 03:32:31;;;;;;;;;;;19.30;99.90;;;;;;8371487;28;19933;-71
2023/09/07 03:36:33;;;;;;;;;;;19.30;99.90;;;;;;8375941;28;19931;-70
2023/09/07 03:50:42;;;;;;;;;;;19.20;99.90;;;;;;8372858;28;19969;-71
2023/09/07 03:54:44;;;;;;;;;;;19.10;99.90;;;;;;8364690;28;20265;-70
2023/09/07 03:58:49;;;;;;;;;;;19.10;99.90;;;;;;8367949;28;19943;-71
2023/09/07 04:02:50;;;;;;;;;;;19.00;99.90;;;;;;8368736;28;19950;-71
2023/09/07 04:06:52;;;;;;;;;;;19.00;99.90;;;;;;8375274;28;19943;-70
2023/09/07 04:10:54;;;;;;;;;;;19.00;99.90;;;;;;8375502;28;19932;-71
2023/09/07 04:14:55;;;;;;;;;;;18.90;99.90;;;;;;8372959;28;19947;-70
2023/09/07 04:18:57;;;;;;;;;;;18.90;99.90;;;;;;8370429;28;20045;-70
2023/09/07 04:22:58;;;;;;;;;;;18.90;99.90;;;;;;8364367;28;19989;-70
2023/09/07 04:27:01;;;;;;;;;;;18.90;99.90;;;;;;8376103;28;19924;-70
2023/09/07 04:31:03;;;;;;;;;;;18.80;99.90;;;;;;8370669;28;20309;-70
2023/09/07 04:35:05;;;;;;;;;;;18.80;99.90;;;;;;8370246;28;19963;-70
2023/09/07 04:39:06;;;;;;;;;;;18.80;99.90;;;;;;8369956;28;19925;-70
2023/09/07 04:43:08;;;;;;;;;;;18.70;99.90;;;;;;8371621;28;19932;-71
2023/09/07 04:47:10;;;;;;;;;;;18.70;99.90;;;;;;8364079;28;19931;-71
2023/09/07 04:51:12;;;;;;;;;;;18.70;99.90;;;;;;8375334;28;20379;-70
2023/09/07 04:55:14;;;;;;;;;;;18.70;99.90;;;;;;8378604;28;19979;-70
2023/09/07 04:59:16;;;;;;;;;;;18.60;99.90;;;;;;8377889;28;19925;-71
2023/09/07 05:03:17;;;;;;;;;;;18.60;99.90;;;;;;8379881;28;19951;-70
2023/09/07 05:07:19;;;;;;;;;;;18.60;99.90;;;;;;8377136;28;20019;-71
2023/09/07 05:11:21;;;;;;;;;;;18.50;99.90;;;;;;8373589;28;19929;-71
2023/09/07 05:15:22;;;;;;;;;;;18.50;99.90;;;;;;8374300;28;19932;-70
2023/09/07 05:19:24;;;;;;;;;;;18.50;99.90;;;;;;8375564;28;20027;-71
2023/09/07 05:23:26;;;;;;;;;;;18.50;99.90;;;;;;8378311;28;19928;-70
2023/09/07 05:27:28;;;;;;;;;;;18.50;99.90;;;;;;8373865;28;19924;-70
2023/09/07 05:31:30;;;;;;;;;;;18.40;99.90;;;;;;8376176;28;19970;-70
2023/09/07 05:35:32;;;;;;;;;;;18.50;99.90;;;;;;8375148;28;19929;-70
2023/09/07 05:39:34;;;;;;;;;;;18.50;99.90;;;;;;8373590;28;20379;-71
2023/09/07 05:43:35;;;;;;;;;;;18.50;99.90;;;;;;8377602;28;19936;-70
2023/09/07 05:47:37;;;;;;;;;;;18.60;99.90;;;;;;8378611;28;19932;-70
2023/09/07 05:51:38;;;;;;;;;;;18.70;99.90;;;;;;8376429;28;19937;-70
2023/09/07 05:55:40;;;;;;;;;;;18.70;99.90;;;;;;8380915;28;19924;-70
2023/09/07 05:59:42;;;;;;;;;;;18.90;99.90;;;;;;8364839;28;20035;-70
2023/09/07 06:03:43;;;;;;;;;;;19.00;99.90;;;;;;8378522;28;20295;-71
2023/09/07 06:07:45;;;;;;;;;;;19.00;99.90;;;;;;8375376;28;20040;-71
2023/09/07 06:11:47;;;;;;;;;;;19.10;99.90;;;;;;8377127;28;19964;-70
2023/09/07 06:15:48;;;;;;;;;;;19.20;99.90;;;;;;8374721;28;19928;-71
2023/09/07 06:19:50;;;;;;;;;;;19.30;99.90;;;;;;8377253;28;19932;-70
2023/09/07 06:23:52;;;;;;;;;;;19.40;99.90;;;;;;8374910;28;19939;-71
2023/09/07 06:27:53;;;;;;;;;;;19.50;99.90;;;;;;8374491;28;19924;-71
2023/09/07 06:31:55;;;;;;;;;;;19.50;99.90;;;;;;8381325;28;19931;-72
2023/09/07 06:36:01;;;;;;;;;;;19.60;99.90;;;;;;8375201;28;19925;-71
2023/09/07 06:40:03;;;;;;;;;;;19.80;99.90;;;;;;8375735;28;19952;-71
2023/09/07 06:44:05;;;;;;;;;;;19.90;99.90;;;;;;8375384;28;20364;-71
2023/09/07 06:48:07;;;;;;;;;;;20.10;99.90;;;;;;8379718;28;19935;-71
2023/09/07 06:52:09;;;;;;;;;;;20.30;99.90;;;;;;8376161;28;20825;-71
2023/09/07 06:56:11;;;;;;;;;;;20.40;99.90;;;;;;8376055;28;20182;-71
2023/09/07 07:00:12;;;;;;;;;;;20.60;99.90;;;;;;8378255;28;19979;-71
2023/09/07 07:04:14;;;;;;;;;;;20.70;99.90;;;;;;8354067;28;19932;-71
2023/09/07 07:08:16;;;;;;;;;;;20.90;99.90;;;;;;8372059;28;19944;-71
2023/09/07 07:12:18;;;;;;;;;;;21.00;99.90;;;;;;8374093;28;19925;-71
2023/09/07 07:16:20;;;;;;;;;;;21.10;99.90;;;;;;8373509;28;19974;-71
2023/09/07 07:20:21;;;;;;;;;;;21.20;99.90;;;;;;8367671;28;20353;-71
2023/09/07 07:24:23;;;;;;;;;;;21.30;99.90;;;;;;8357725;28;20284;-71
2023/09/07 07:28:25;;;;;;;;;;;21.40;99.90;;;;;;8373778;28;19932;-70
2023/09/07 07:32:27;;;;;;;;;;;21.50;99.90;;;;;;8364786;28;19938;-71
2023/09/07 07:36:28;;;;;;;;;;;21.60;99.90;;;;;;8365589;28;20593;-70
2023/09/07 07:40:32;;;;;;;;;;;21.70;99.90;;;;;;8374155;28;19924;-70
2023/09/07 07:44:34;;;;;;;;;;;21.70;99.90;;;;;;8371277;28;20408;-71
2023/09/07 07:48:35;;;;;;;;;;;21.80;99.90;;;;;;8372668;28;19977;-70
2023/09/07 07:52:37;;;;;;;;;;;21.90;99.90;;;;;;8369966;28;19924;-71
2023/09/07 07:56:39;;;;;;;;;;;22.00;99.90;;;;;;8366951;28;19924;-71
2023/09/07 08:00:41;;;;;;;;;;;22.10;99.90;;;;;;8371942;28;19931;-71
2023/09/07 08:04:43;;;;;;;;;;;22.20;99.90;;;;;;8371908;28;19978;-71
2023/09/07 08:08:44;;;;;;;;;;;22.40;99.90;;;;;;8367663;28;19929;-71
2023/09/07 08:12:46;;;;;;;;;;;22.50;99.90;;;;;;8365175;28;19924;-70
2023/09/07 08:16:48;;;;;;;;;;;22.60;99.90;;;;;;8374025;28;19978;-71
2023/09/07 08:20:49;;;;;;;;;;;22.70;99.90;;;;;;8377652;28;20288;-70
2023/09/07 08:24:52;;;;;;;;;;;22.80;99.90;;;;;;8382109;28;19932;-71
2023/09/07 08:28:53;;;;;;;;;;;23.00;99.90;;;;;;8387277;28;19932;-71
2023/09/07 08:32:55;;;;;;;;;;;23.00;99.90;;;;;;8384277;28;19965;-71
2023/09/07 08:36:59;;;;;;;;;;;23.10;99.90;;;;;;8377056;28;19929;-70
2023/09/07 08:41:04;;;;;;;;;;;23.30;99.90;;;;;;8376399;28;20319;-70
2023/09/07 08:45:08;;;;;;;;;;;23.40;99.90;;;;;;8377590;28;19938;-71
2023/09/07 08:49:11;;;;;;;;;;;23.50;99.90;;;;;;8383185;28;20417;-70
2023/09/07 08:53:12;;;;;;;;;;;23.60;99.90;;;;;;8371823;28;19932;-71
2023/09/07 08:57:14;;;;;;;;;;;23.70;99.90;;;;;;8382570;28;20334;-71
2023/09/07 09:01:16;;;;;;;;;;;23.80;99.90;;;;;;8384030;28;19969;-71
2023/09/07 09:05:19;;;;;;;;;;;23.90;99.90;;;;;;8384570;28;20407;-70
2023/09/07 09:09:27;;;;;;;;;;;24.00;99.90;;;;;;8386487;28;19932;-70
2023/09/07 09:13:32;;;;;;;;;;;24.10;99.90;;;;;;8379435;28;19932;-71
2023/09/07 09:17:36;;;;;;;;;;;24.20;99.90;;;;;;8358144;28;19964;-70
2023/09/07 09:21:37;;;;;;;;;;;24.30;99.90;;;;;;8378923;28;19929;-70
2023/09/07 09:25:42;;;;;;;;;;;24.40;99.90;;;;;;8367011;28;19925;-71
2023/09/07 09:29:44;;;;;;;;;;;24.50;99.90;;;;;;8372291;28;19936;-70
2023/09/07 09:33:51;;;;;;;;;;;24.60;99.90;;;;;;8374761;28;19929;-71
2023/09/07 09:37:53;;;;;;;;;;;24.60;99.90;;;;;;8377501;28;19987;-70
2023/09/07 09:41:55;;;;;;;;;;;24.70;99.90;;;;;;8377989;28;19928;-69
2023/09/07 09:45:59;;;;;;;;;;;24.80;99.90;;;;;;8369565;28;19924;-70
2023/09/07 09:50:02;;;;;;;;;;;24.80;99.90;;;;;;8372876;28;19971;-71
2023/09/07 09:54:04;;;;;;;;;;;24.90;99.90;;;;;;8371441;28;20027;-70
2023/09/07 09:58:06;;;;;;;;;;;25.00;99.90;;;;;;8368174;28;19936;-70
2023/09/07 10:02:08;;;;;;;;;;;25.10;99.90;;;;;;8379694;28;20429;-71
2023/09/07 10:06:10;;;;;;;;;;;25.20;99.90;;;;;;8375179;28;19925;-70
2023/09/07 10:10:13;;;;;;;;;;;25.30;99.90;;;;;;8372178;28;19971;-70
2023/09/07 10:14:15;;;;;;;;;;;25.50;99.90;;;;;;8371320;28;20377;-70
2023/09/07 10:18:18;;;;;;;;;;;25.60;99.90;;;;;;8371127;28;19931;-70
2023/09/07 10:22:23;;;;;;;;;;;25.60;99.90;;;;;;8364382;28;19929;-70
2023/09/07 10:26:25;;;;;;;;;;;25.70;99.90;;;;;;8368838;28;19936;-70
2023/09/07 10:30:29;;;;;;;;;;;25.80;99.90;;;;;;8373776;28;20288;-70
2023/09/07 10:34:35;;;;;;;;;;;25.80;99.90;;;;;;8373644;28;19975;-70
2023/09/07 10:38:36;;;;;;;;;;;25.90;99.90;;;;;;8368598;28;19928;-70
2023/09/07 10:42:38;;;;;;;;;;;26.00;99.90;;;;;;8377941;28;19929;-70
2023/09/07 10:46:40;;;;;;;;;;;26.00;99.90;;;;;;8378145;28;20283;-70
2023/09/07 10:50:42;;;;;;;;;;;26.10;99.90;;;;;;8370153;28;20265;-70
2023/09/07 10:54:44;;;;;;;;;;;26.20;99.90;;;;;;8369932;28;19932;-71
2023/09/07 10:58:46;;;;;;;;;;;26.30;99.90;;;;;;8354769;28;19935;-71
2023/09/07 11:02:47;;;;;;;;;;;26.40;99.90;;;;;;8375273;28;19961;-69
2023/09/07 11:06:50;;;;;;;;;;;26.50;99.90;;;;;;8370539;28;19924;-70
2023/09/07 11:10:52;;;;;;;;;;;26.60;99.90;;;;;;8388499;28;20375;-70
2023/09/07 11:14:53;;;;;;;;;;;26.70;99.90;;;;;;8363844;28;20322;-70
2023/09/07 11:18:55;;;;;;;;;;;26.80;99.90;;;;;;8379615;28;19924;-70
2023/09/07 11:22:57;;;;;;;;;;;26.90;99.90;;;;;;8378572;28;19955;-70
2023/09/07 11:27:08;;;;;;;;;;;27.00;99.90;;;;;;8369685;28;19947;-70
2023/09/07 11:31:10;;;;;;;;;;;27.10;99.90;;;;;;8363091;28;19929;-70
2023/09/07 11:35:12;;;;;;;;;;;27.20;99.90;;;;;;8367917;28;19940;-70
2023/09/07 11:39:13;;;;;;;;;;;27.20;99.90;;;;;;8377991;28;19924;-70
2023/09/07 11:43:16;;;;;;;;;;;27.30;99.90;;;;;;8371282;28;20342;-70
2023/09/07 11:47:18;;;;;;;;;;;27.40;99.90;;;;;;8364446;28;20342;-70
2023/09/07 11:51:21;;;;;;;;;;;27.40;99.90;;;;;;8373902;28;19928;-70
2023/09/07 11:55:23;;;;;;;;;;;27.50;99.90;;;;;;8384759;28;20053;-71
2023/09/07 11:59:25;;;;;;;;;;;27.60;99.90;;;;;;8386337;28;19975;-71
2023/09/07 12:03:29;;;;;;;;;;;27.70;99.90;;;;;;8378220;28;19948;-71
2023/09/07 12:07:31;;;;;;;;;;;27.80;99.90;;;;;;8371768;28;20364;-71
2023/09/07 12:11:33;;;;;;;;;;;27.80;99.90;;;;;;8376292;28;21091;-71
2023/09/07 12:15:35;;;;;;;;;;;27.90;99.90;;;;;;8377818;28;19924;-71
2023/09/07 12:19:36;;;;;;;;;;;27.90;99.90;;;;;;8354025;28;19978;-71
2023/09/07 12:23:38;;;;;;;;;;;27.90;99.90;;;;;;8372284;28;19924;-71
2023/09/07 12:27:40;;;;;;;;;;;27.90;99.90;;;;;;8363194;28;19932;-71
2023/09/07 12:31:54;;;;;;;;;;;28.00;99.90;;;;;;8370482;28;19929;-71
2023/09/07 12:35:56;;;;;;;;;;;28.10;99.90;;;;;;8374738;28;19971;-71
2023/09/07 12:39:57;;;;;;;;;;;28.20;99.90;;;;;;8385853;28;19924;-71
2023/09/07 12:43:59;;;;;;;;;;;28.20;99.90;;;;;;8378523;28;19931;-71
2023/09/07 12:48:01;;;;;;;;;;;28.20;99.90;;;;;;8376474;28;19971;-70
2023/09/07 12:52:08;;;;;;;;;;;28.20;99.90;;;;;;8366840;28;19928;-70
2023/09/07 12:56:10;;;;;;;;;;;28.20;99.90;;;;;;8348232;28;20327;-71
2023/09/07 13:00:12;;;;;;;;;;;28.30;99.90;;;;;;8374095;28;19947;-71
2023/09/07 13:04:13;;;;;;;;;;;28.30;99.90;;;;;;8367804;28;19924;-70
2023/09/07 13:08:15;;;;;;;;;;;28.30;99.90;;;;;;8381229;28;19931;-71
2023/09/07 13:12:17;;;;;;;;;;;28.30;99.90;;;;;;8383038;28;19925;-71
2023/09/07 13:16:19;;;;;;;;;;;28.30;99.90;;;;;;8394393;28;19928;-71
2023/09/07 13:20:20;;;;;;;;;;;28.40;99.90;;;;;;8379471;28;19963;-71
2023/09/07 13:24:22;;;;;;;;;;;28.40;99.90;;;;;;8378473;28;19932;-71
2023/09/07 13:28:24;;;;;;;;;;;28.40;99.90;;;;;;8376108;28;19928;-71
2023/09/07 13:32:26;;;;;;;;;;;28.40;99.90;;;;;;8379118;28;20360;-71
2023/09/07 13:36:27;;;;;;;;;;;28.40;99.90;;;;;;8374786;28;19964;-71
2023/09/07 13:40:29;;;;;;;;;;;28.40;99.90;;;;;;8374839;28;19925;-71
2023/09/07 13:44:31;;;;;;;;;;;28.40;99.90;;;;;;8373903;28;20015;-71
2023/09/07 13:48:33;;;;;;;;;;;28.50;99.90;;;;;;8376711;28;19932;-71
2023/09/07 13:52:34;;;;;;;;;;;28.50;99.90;;;;;;8372407;28;20371;-71
2023/09/07 13:56:36;;;;;;;;;;;28.50;99.90;;;;;;8374317;28;19924;-71
2023/09/07 14:00:38;;;;;;;;;;;28.60;99.90;;;;;;8375042;28;19933;-71
2023/09/07 14:04:40;;;;;;;;;;;28.60;99.90;;;;;;8368697;28;19931;-71
2023/09/07 14:08:43;;;;;;;;;;;28.60;99.90;;;;;;8370959;28;21309;-71
2023/09/07 14:12:48;;;;;;;;;;;28.70;99.90;;;;;;8370108;28;19925;-71
2023/09/07 14:16:55;;;;;;;;;;;28.70;99.90;;;;;;8374150;28;19928;-71
2023/09/07 14:20:58;;;;;;;;;;;28.80;99.90;;;;;;8366139;28;20011;-72
2023/09/07 14:25:00;;;;;;;;;;;28.80;99.90;;;;;;8379829;28;19932;-71
2023/09/07 14:29:01;;;;;;;;;;;28.90;99.90;;;;;;8373551;28;19925;-71
2023/09/07 14:33:04;;;;;;;;;;;29.00;99.90;;;;;;8372615;28;19932;-71
2023/09/07 14:37:06;;;;;;;;;;;29.00;99.90;;;;;;8380186;28;19945;-71
2023/09/07 14:41:16;;;;;;;;;;;29.10;99.90;;;;;;8376322;28;20046;-71
2023/09/07 14:45:17;;;;;;;;;;;29.10;99.90;;;;;;8374678;28;20311;-72
2023/09/07 14:49:20;;;;;;;;;;;29.10;99.90;;;;;;8368974;28;20075;-72
2023/09/07 14:53:22;;;;;;;;;;;29.10;99.90;;;;;;8374532;28;19931;-71
2023/09/07 14:57:24;;;;;;;;;;;29.20;99.90;;;;;;8379064;28;19924;-71
2023/09/07 15:01:25;;;;;;;;;;;29.20;99.90;;;;;;8371345;28;20002;-72
2023/09/07 15:05:28;;;;;;;;;;;29.20;99.90;;;;;;8368911;28;19929;-72
2023/09/07 15:09:30;;;;;;;;;;;29.20;99.90;;;;;;8370426;28;19933;-71
2023/09/07 15:13:31;;;;;;;;;;;29.20;99.90;;;;;;8375815;28;19929;-72
2023/09/07 15:17:37;;;;;;;;;;;29.10;99.90;;;;;;8373715;28;20323;-72
2023/09/07 15:21:39;;;;;;;;;;;29.10;99.90;;;;;;8371005;28;20294;-71
2023/09/07 15:25:41;;;;;;;;;;;29.10;99.90;;;;;;8373583;28;19931;-72
2023/09/07 15:29:43;;;;;;;;;;;29.20;99.90;;;;;;8376321;28;19948;-72
2023/09/07 15:33:44;;;;;;;;;;;29.30;99.90;;;;;;8367095;28;20014;-72
2023/09/07 15:37:46;;;;;;;;;;;29.50;99.90;;;;;;8375362;28;20373;-71
2023/09/07 15:41:48;;;;;;;;;;;29.70;99.90;;;;;;8376188;28;19950;-72
2023/09/07 15:45:50;;;;;;;;;;;29.80;99.90;;;;;;8347629;28;19924;-72
2023/09/07 15:49:52;;;;;;;;;;;29.80;99.90;;;;;;8373469;28;20328;-72
2023/09/07 15:53:53;;;;;;;;;;;29.70;99.90;;;;;;8372262;28;19929;-71
2023/09/07 15:57:55;;;;;;;;;;;29.50;99.90;;;;;;8377646;28;19928;-71
2023/09/07 16:01:57;;;;;;;;;;;29.40;99.90;;;;;;8349999;28;19932;-72
2023/09/07 16:05:59;;;;;;;;;;;29.30;99.90;;;;;;8371604;28;19924;-72
2023/09/07 16:10:00;;;;;;;;;;;29.20;99.90;;;;;;8371605;28;19924;-71
2023/09/07 16:14:02;;;;;;;;;;;29.30;99.90;;;;;;8366195;28;19924;-72
2023/09/07 16:18:04;;;;;;;;;;;29.30;99.90;;;;;;8366644;28;19924;-71
2023/09/07 16:22:08;;;;;;;;;;;29.40;99.90;;;;;;8364456;28;19933;-72
2023/09/07 16:26:10;;;;;;;;;;;29.50;99.90;;;;;;8377498;28;19928;-73
2023/09/07 16:30:12;;;;;;;;;;;29.60;99.90;;;;;;8375201;28;19970;-72
2023/09/07 16:34:13;;;;;;;;;;;29.50;99.90;;;;;;8365626;28;19972;-72
2023/09/07 16:38:15;;;;;;;;;;;29.40;99.90;;;;;;8368330;28;19979;-72
2023/09/07 16:42:17;;;;;;;;;;;29.40;99.90;;;;;;8353357;28;19925;-72
2023/09/07 16:46:19;;;;;;;;;;;29.40;99.90;;;;;;8374521;28;19977;-72
2023/09/07 16:50:21;;;;;;;;;;;29.30;99.90;;;;;;8371843;28;20286;-73
2023/09/07 16:54:22;;;;;;;;;;;29.40;99.90;;;;;;8379380;28;19925;-72
2023/09/07 16:58:24;;;;;;;;;;;29.60;99.90;;;;;;8377131;28;19935;-72
2023/09/07 17:02:42;;;;;;;;;;;29.80;99.90;;;;;;8385311;28;19953;-72
2023/09/07 17:06:44;;;;;;;;;;;30.10;99.90;;;;;;8376508;28;20313;-72
2023/09/07 17:10:52;;;;;;;;;;;30.40;99.90;;;;;;8376511;28;19931;-72
2023/09/07 17:14:54;;;;;;;;;;;30.60;99.90;;;;;;8355510;28;19968;-72
2023/09/07 17:18:56;;;;;;;;;;;30.70;99.90;;;;;;8365193;28;19924;-72
2023/09/07 17:22:58;;;;;;;;;;;30.80;99.90;;;;;;8376894;28;19924;-72
2023/09/07 17:26:59;;;;;;;;;;;30.80;99.90;;;;;;8378097;28;20440;-73
2023/09/07 17:31:02;;;;;;;;;;;30.70;99.90;;;;;;8380433;28;19932;-73
2023/09/07 17:35:04;;;;;;;;;;;30.60;99.90;;;;;;8377508;28;19948;-73
2023/09/07 17:39:06;;;;;;;;;;;30.40;99.90;;;;;;8379565;28;19928;-73
2023/09/07 17:43:07;;;;;;;;;;;30.00;99.90;;;;;;8351449;28;20401;-73
2023/09/07 17:47:09;;;;;;;;;;;29.70;99.90;;;;;;8379363;28;19940;-72
2023/09/07 17:51:11;;;;;;;;;;;29.30;99.90;;;;;;8375579;28;19925;-72
2023/09/07 17:55:12;;;;;;;;;;;28.90;99.90;;;;;;8382512;28;20376;-72
2023/09/07 17:59:14;;;;;;;;;;;28.60;99.90;;;;;;8377884;28;19978;-72
2023/09/07 18:03:15;;;;;;;;;;;28.30;99.90;;;;;;8373007;28;19960;-72
2023/09/07 18:07:18;;;;;;;;;;;28.00;99.90;;;;;;8372004;28;19932;-71
2023/09/07 18:11:20;;;;;;;;;;;27.70;99.90;;;;;;8367529;28;19929;-71
2023/09/07 18:15:21;;;;;;;;;;;27.50;99.90;;;;;;8343150;28;20419;-71
2023/09/07 18:19:23;;;;;;;;;;;27.30;99.90;;;;;;8347159;28;19991;-71
2023/09/07 18:23:26;;;;;;;;;;;27.10;99.90;;;;;;8381722;28;20376;-71
2023/09/07 18:27:28;;;;;;;;;;;26.90;99.90;;;;;;8351624;28;19937;-71
2023/09/07 18:31:30;;;;;;;;;;;26.70;99.90;;;;;;8347258;28;19932;-71
2023/09/07 18:35:32;;;;;;;;;;;26.50;99.90;;;;;;8363310;28;20411;-71
2023/09/07 18:39:34;;;;;;;;;;;26.30;99.90;;;;;;8368642;28;19929;-71
2023/09/07 18:43:37;;;;;;;;;;;26.20;99.90;;;;;;8343522;28;19925;-71
2023/09/07 18:47:38;;;;;;;;;;;26.10;99.90;;;;;;8369614;28;20250;-71
2023/09/07 18:51:40;;;;;;;;;;;25.90;99.90;;;;;;8369346;28;19986;-71
2023/09/07 18:55:42;;;;;;;;;;;25.80;99.90;;;;;;8340259;28;19924;-71
2023/09/07 18:59:43;;;;;;;;;;;25.70;99.90;;;;;;8370202;28;19972;-71
2023/09/07 19:03:46;;;;;;;;;;;25.60;99.90;;;;;;8372068;28;20401;-71
2023/09/07 19:07:48;;;;;;;;;;;25.50;99.90;;;;;;8370532;28;19950;-71
2023/09/07 19:11:51;;;;;;;;;;;25.40;99.90;;;;;;8370734;28;20019;-71
2023/09/07 19:15:54;;;;;;;;;;;25.30;99.90;;;;;;8372295;28;19989;-71
2023/09/07 19:19:57;;;;;;;;;;;25.20;99.90;;;;;;8366990;28;19932;-71
2023/09/07 19:23:59;;;;;;;;;;;25.20;99.90;;;;;;8372498;28;19932;-71
2023/09/07 19:28:01;;;;;;;;;;;25.10;99.90;;;;;;8371995;28;19932;-71
2023/09/07 19:32:02;;;;;;;;;;;25.00;99.90;;;;;;8379409;28;19954;-71
2023/09/07 19:36:04;;;;;;;;;;;24.90;99.90;;;;;;8360322;28;19956;-71
2023/09/07 19:40:06;;;;;;;;;;;24.80;99.90;;;;;;8371352;28;20030;-70
2023/09/07 19:44:08;;;;;;;;;;;24.60;99.90;;;;;;8376797;28;19978;-71
2023/09/07 19:48:10;;;;;;;;;;;24.50;99.90;;;;;;8373516;28;20539;-71
2023/09/07 19:52:11;;;;;;;;;;;24.50;99.90;;;;;;8376557;28;19924;-71
2023/09/07 19:56:15;;;;;;;;;;;24.40;99.90;;;;;;8376815;28;19933;-71
2023/09/07 20:00:17;;;;;;;;;;;24.40;99.90;;;;;;8362083;28;19932;-71
2023/09/07 20:04:20;;;;;;;;;;;24.40;99.90;;;;;;8354601;28;19931;-71
2023/09/07 20:08:22;;;;;;;;;;;24.40;99.90;;;;;;8368103;28;19940;-71
2023/09/07 20:12:23;;;;;;;;;;;24.50;99.90;;;;;;8368414;28;19931;-71
2023/09/07 20:16:25;;;;;;;;;;;24.50;99.90;;;;;;8373865;28;19976;-71
2023/09/07 20:20:27;;;;;;;;;;;24.50;99.90;;;;;;8372680;28;20338;-71
2023/09/07 20:24:28;;;;;;;;;;;24.50;99.90;;;;;;8367539;28;19924;-71
2023/09/07 20:28:31;;;;;;;;;;;24.40;99.90;;;;;;8374831;28;20295;-70
2023/09/07 20:32:33;;;;;;;;;;;24.30;99.90;;;;;;8357744;28;19929;-71
2023/09/07 20:36:35;;;;;;;;;;;24.20;99.90;;;;;;8374723;28;19935;-71
2023/09/07 20:40:37;;;;;;;;;;;24.20;99.90;;;;;;8373396;28;19931;-71
2023/09/07 20:44:38;;;;;;;;;;;24.20;99.90;;;;;;8376418;28;19924;-71
2023/09/07 20:48:40;;;;;;;;;;;24.00;99.90;;;;;;8372908;28;20278;-71
2023/09/07 20:52:42;;;;;;;;;;;23.90;99.90;;;;;;8361872;28;19931;-71
2023/09/07 20:56:43;;;;;;;;;;;23.80;99.90;;;;;;8370074;28;20265;-71
2023/09/07 21:00:45;;;;;;;;;;;23.80;99.90;;;;;;8365657;28;19928;-70
2023/09/07 21:04:47;;;;;;;;;;;23.70;99.90;;;;;;8374638;28;19925;-70
2023/09/07 21:08:48;;;;;;;;;;;23.60;99.90;;;;;;8366163;28;20284;-70
2023/09/07 21:12:50;;;;;;;;;;;23.50;99.90;;;;;;8374042;28;19929;-70
2023/09/07 21:16:53;;;;;;;;;;;23.40;99.90;;;;;;8374439;28;19925;-71
2023/09/07 21:20:58;;;;;;;;;;;23.50;99.90;;;;;;8368040;28;19939;-70
2023/09/07 21:25:00;;;;;;;;;;;23.40;99.90;;;;;;8374439;28;20422;-70
2023/09/07 21:29:01;;;;;;;;;;;23.30;99.90;;;;;;8370394;28;19968;-71
2023/09/07 21:33:04;;;;;;;;;;;23.20;99.90;;;;;;8371046;28;19925;-70
2023/09/07 21:37:05;;;;;;;;;;;23.10;99.90;;;;;;8354677;28;19929;-71
2023/09/07 21:41:07;;;;;;;;;;;23.10;99.90;;;;;;8371776;28;20276;-70
2023/09/07 21:45:09;;;;;;;;;;;23.00;99.90;;;;;;8378153;28;19977;-70
2023/09/07 21:49:11;;;;;;;;;;;23.00;99.90;;;;;;8377106;28;20000;-70
2023/09/07 21:53:12;;;;;;;;;;;23.00;99.90;;;;;;8374669;28;19932;-71
2023/09/07 21:57:14;;;;;;;;;;;23.10;99.90;;;;;;8358052;28;19993;-70
2023/09/07 22:01:16;;;;;;;;;;;23.10;99.90;;;;;;8374981;28;20333;-71
2023/09/07 22:05:17;;;;;;;;;;;23.00;99.90;;;;;;8383051;28;19925;-70
2023/09/07 22:09:19;;;;;;;;;;;23.00;99.90;;;;;;8361469;28;19936;-70
2023/09/07 22:13:21;;;;;;;;;;;22.90;99.90;;;;;;8377147;28;20383;-70
2023/09/07 22:17:22;;;;;;;;;;;22.90;99.90;;;;;;8372225;28;20001;-70
2023/09/07 22:21:24;;;;;;;;;;;22.90;99.90;;;;;;8374549;28;19932;-71
2023/09/07 22:25:26;;;;;;;;;;;22.90;99.90;;;;;;8351598;28;19925;-71
2023/09/07 22:29:27;;;;;;;;;;;22.80;99.90;;;;;;8376964;28;19924;-70
2023/09/07 22:33:29;;;;;;;;;;;22.70;99.90;;;;;;8377250;28;19929;-70
2023/09/07 22:37:31;;;;;;;;;;;22.60;99.90;;;;;;8381798;28;19939;-70
2023/09/07 22:41:33;;;;;;;;;;;22.50;99.90;;;;;;8358476;28;19932;-70
2023/09/07 22:45:36;;;;;;;;;;;22.50;99.90;;;;;;8375143;28;19925;-70
2023/09/07 22:49:37;;;;;;;;;;;22.50;99.90;;;;;;8358055;28;19928;-70
2023/09/07 22:53:39;;;;;;;;;;;22.50;99.90;;;;;;8352187;28;20306;-70
2023/09/07 22:57:41;;;;;;;;;;;22.50;99.90;;;;;;8374018;28;19928;-70
2023/09/07 23:01:43;;;;;;;;;;;22.40;99.90;;;;;;8373008;28;19943;-71
2023/09/07 23:05:44;;;;;;;;;;;22.40;99.90;;;;;;8376206;28;19932;-70
2023/09/07 23:09:46;;;;;;;;;;;22.30;99.90;;;;;;8378316;28;19924;-70
2023/09/07 23:19:26;;;;;;;;;;;22.30;99.90;;;;;;8369640;28;19919;-71
2023/09/07 23:23:28;;;;;;;;;;;22.40;99.90;;;;;;8367434;28;19925;-70
2023/09/07 23:27:31;;;;;;;;;;;22.40;99.90;;;;;;8367352;28;20256;-70
2023/09/07 23:31:33;;;;;;;;;;;22.40;99.90;;;;;;8374219;28;19928;-70
2023/09/07 23:35:35;;;;;;;;;;;22.30;99.90;;;;;;8374410;28;19925;-71
2023/09/07 23:39:36;;;;;;;;;;;22.30;99.90;;;;;;8369000;28;19924;-70
2023/09/07 23:43:38;;;;;;;;;;;22.30;99.90;;;;;;8357275;28;19963;-70
2023/09/07 23:47:40;;;;;;;;;;;22.30;99.90;;;;;;8377405;28;19994;-70
2023/09/07 23:51:41;;;;;;;;;;;22.30;99.90;;;;;;8377055;28;19978;-70